Allenstown, New Hampshire
Current Conditions -  °F | °C
As of 11:10 AM on Friday 24 Oct 2014 (Local Time) from KCON Reporting Station
Overcast Overcast  
Wind Chill: 50°   Ceiling: 3300
Heat Index: 50°   Visibility: 10mi
Dew Point: 44°   Wind: 10mph
Humidity: 80%   Direction: 320°NW
Pressure: 29.73"   Gusts: NA
Location:  43.1606°N, 71.4143°W
Report Text: KCON 241510Z AUTO 32009KT 10SM SCT028 OVC033 10/07 A2973 RMK AO2 T01000067
Loading
Personal Weather Stations






























Interactive Weather Map
Tropical Storm Tracking
New forecast layout! Learn more

10-Day Weather Forecast

Advertisements
Track Severe Weather on mobile